• Join FlightAware (Why Join?)
  • Login
  • US Flag 
02:17PM EDT


 

Airport Tracker/Info


-or-


 

Live Flight TrackerFlight Track Log ✈ ASQ6041 ✈ 15-Jul-2013 ✈ KGUC - KDEN

Flight Track Log - Related Links

Times and Time Zones

All times are in EDT time to prevent confusion due to time zone crossing. See the ASQ6041 flight status page for this flight to view local times or setup timezone preferences in your user account.

Time Position Orientation Groundspeed Altitude Reporting Facility
EDT Latitude Longitude Course Direction KTS MPH feet Rate Location/Type
03:58PM 38.5822 -106.8592 49° Northeast 252 290 15,100  Level Denver Center
03:59PM 38.6861 -106.7044 49° Northeast  Level FlightAware Approximate
03:59PM 38.6314 -106.7925 47° Northeast 257 296 16,900  Level Denver Center
04:00PM 38.7476 -106.6121 49° Northeast  Level FlightAware Approximate
04:00PM 38.6886 -106.7150 47° Northeast 285 328 17,900  Level Denver Center
04:01PM 38.8096 -106.5202 47° Northeast  Level FlightAware Approximate
04:01PM 38.7658 -106.6631 28° Northeast 330 380 19,200  Level Denver Center
04:02PM 38.8742 -106.4314 47° Northeast  Level FlightAware Approximate
04:03PM 38.9414 -106.3500 North  Level FlightAware Approximate
04:03PM 38.8586 -106.6717 356° North 332 382 20,600  Level Denver Center
04:04PM 39.0061 -106.2660 49° Northeast  Level FlightAware Approximate
04:04PM 38.9567 -106.6958 349° North 339 390 22,100  Level Denver Center
04:05PM 39.0150 -106.6031 51° Northeast 339 390 23,700 1,380 Climbing Denver Center
04:06PM 39.0303 -106.4861 80° East 344 396 25,000 600 Climbing Denver Center
04:07PM 39.1231 -106.4008 35° Northeast 379 436 25,000 -60 Level Denver Center
04:08PM 39.2072 -106.3169 38° Northeast 415 478 24,900 -300 Descending Denver Center
04:09PM 39.2467 -106.1850 69° East 415 478 24,500 -900 Descending Denver Center
04:10PM 39.2558 -106.0247 86° East 423 487 23,100 -1,320 Descending Denver Center
04:11PM 39.2556 -105.8811 90° East 403 464 21,800 -1,500 Descending Denver Center
04:12PM 39.2569 -105.7183 89° East 381 438 20,100 -900 Descending Denver Center
04:13PM 39.2572 -105.5897 90° East 365 420 20,000 -60 Descending Denver Center
04:14PM 39.2572 -105.4619 90° East 358 412 20,000 -420 Level Denver Center
04:15PM 39.2817 -105.3439 75° East 334 384 19,200 -1,320 Descending Denver Center
04:16PM 39.3728 -105.3022 19° North 346 398 17,300 -1,800 Descending Denver Center
04:17PM 39.4656 -105.2575 20° North 354 407 15,500 -1,860 Descending Denver Center
04:18PM 39.5661 -105.2211 16° North 348 400 13,600 -1,200 Descending Denver Center
04:19PM 39.6508 -105.1831 19° North 323 372 13,100 -780 Descending Denver Center
04:20PM 39.7206 -105.1483 21° North 255 293 12,100 -1,200 Descending Denver Center
04:21PM 39.7872 -105.1164 20° North 253 291 10,700 -1,080 Descending Denver Center
04:22PM 39.8136 -105.0364 67° East 239 275 9,900 -1,080 Descending Denver Center
04:23PM 39.8294 -104.9544 76° East 220 253 8,500 -1,320 Descending Denver Center
04:24PM 39.8417 -104.8783 78° East 216 249 7,200 -1,260 Descending Denver Center